sensor_id;sensor_type;location;lat;lon;timestamp;temperature;humidity
26589;DHT22;14235;48.532;8.722;2023-07-30T00:01:13;18.80;99.90
26589;DHT22;14235;48.532;8.722;2023-07-30T00:03:38;18.80;99.90
26589;DHT22;14235;48.532;8.722;2023-07-30T00:06:04;18.70;99.90
26589;DHT22;14235;48.532;8.722;2023-07-30T00:08:29;18.70;99.90
26589;DHT22;14235;48.532;8.722;2023-07-30T00:10:58;18.70;99.90
26589;DHT22;14235;48.532;8.722;2023-07-30T00:13:24;18.70;99.90
26589;DHT22;14235;48.532;8.722;2023-07-30T00:15:50;18.80;99.90
26589;DHT22;14235;48.532;8.722;2023-07-30T00:18:16;18.60;99.90
26589;DHT22;14235;48.532;8.722;2023-07-30T00:20:42;18.60;99.90
26589;DHT22;14235;48.532;8.722;2023-07-30T00:23:08;18.60;99.90
26589;DHT22;14235;48.532;8.722;2023-07-30T00:25:33;18.60;99.90
26589;DHT22;14235;48.532;8.722;2023-07-30T00:27:59;18.60;99.90
26589;DHT22;14235;48.532;8.722;2023-07-30T00:30:24;18.70;99.90
26589;DHT22;14235;48.532;8.722;2023-07-30T00:32:50;18.50;99.90
26589;DHT22;14235;48.532;8.722;2023-07-30T00:35:16;18.70;99.90
26589;DHT22;14235;48.532;8.722;2023-07-30T00:37:41;18.50;99.90
26589;DHT22;14235;48.532;8.722;2023-07-30T00:40:07;18.60;99.90
26589;DHT22;14235;48.532;8.722;2023-07-30T00:42:33;18.60;99.90
26589;DHT22;14235;48.532;8.722;2023-07-30T00:44:58;18.60;99.90
26589;DHT22;14235;48.532;8.722;2023-07-30T00:47:26;18.60;99.90
26589;DHT22;14235;48.532;8.722;2023-07-30T00:49:52;18.70;99.90
26589;DHT22;14235;48.532;8.722;2023-07-30T00:52:20;18.60;99.90
26589;DHT22;14235;48.532;8.722;2023-07-30T00:54:48;18.50;99.90
26589;DHT22;14235;48.532;8.722;2023-07-30T00:57:15;18.40;99.90
26589;DHT22;14235;48.532;8.722;2023-07-30T00:59:41;18.50;99.90
26589;DHT22;14235;48.532;8.722;2023-07-30T01:02:07;18.60;99.90
26589;DHT22;14235;48.532;8.722;2023-07-30T01:04:32;18.40;99.90
26589;DHT22;14235;48.532;8.722;2023-07-30T01:06:58;18.50;99.90
26589;DHT22;14235;48.532;8.722;2023-07-30T01:09:24;18.40;99.90
26589;DHT22;14235;48.532;8.722;2023-07-30T01:11:51;18.50;99.90
26589;DHT22;14235;48.532;8.722;2023-07-30T01:14:19;18.40;99.90
26589;DHT22;14235;48.532;8.722;2023-07-30T01:16:45;18.40;99.90
26589;DHT22;14235;48.532;8.722;2023-07-30T01:21:37;18.30;99.90
26589;DHT22;14235;48.532;8.722;2023-07-30T01:24:03;18.30;99.90
26589;DHT22;14235;48.532;8.722;2023-07-30T01:26:37;18.20;99.90
26589;DHT22;14235;48.532;8.722;2023-07-30T01:29:09;18.30;99.90
26589;DHT22;14235;48.532;8.722;2023-07-30T01:31:39;18.10;99.90
26589;DHT22;14235;48.532;8.722;2023-07-30T01:34:06;18.10;99.90
26589;DHT22;14235;48.532;8.722;2023-07-30T01:36:33;18.10;99.90
26589;DHT22;14235;48.532;8.722;2023-07-30T01:38:59;18.10;99.90
26589;DHT22;14235;48.532;8.722;2023-07-30T01:41:25;18.10;99.90
26589;DHT22;14235;48.532;8.722;2023-07-30T01:43:51;18.10;99.90
26589;DHT22;14235;48.532;8.722;2023-07-30T01:46:17;18.10;99.90
26589;DHT22;14235;48.532;8.722;2023-07-30T01:48:42;18.10;99.90
26589;DHT22;14235;48.532;8.722;2023-07-30T01:51:08;18.20;99.90
26589;DHT22;14235;48.532;8.722;2023-07-30T01:53:33;18.10;99.90
26589;DHT22;14235;48.532;8.722;2023-07-30T01:55:59;18.10;99.90
26589;DHT22;14235;48.532;8.722;2023-07-30T02:00:50;18.10;99.90
26589;DHT22;14235;48.532;8.722;2023-07-30T02:03:16;18.10;99.90
26589;DHT22;14235;48.532;8.722;2023-07-30T02:05:42;18.00;99.90
26589;DHT22;14235;48.532;8.722;2023-07-30T02:08:07;18.10;99.90
26589;DHT22;14235;48.532;8.722;2023-07-30T02:10:33;18.10;99.90
26589;DHT22;14235;48.532;8.722;2023-07-30T02:12:59;18.10;99.90
26589;DHT22;14235;48.532;8.722;2023-07-30T02:15:24;18.00;99.90
26589;DHT22;14235;48.532;8.722;2023-07-30T02:17:50;18.00;99.90
26589;DHT22;14235;48.532;8.722;2023-07-30T02:20:16;17.90;99.90
26589;DHT22;14235;48.532;8.722;2023-07-30T02:22:41;17.90;99.90
26589;DHT22;14235;48.532;8.722;2023-07-30T02:25:07;17.90;99.90
26589;DHT22;14235;48.532;8.722;2023-07-30T02:27:33;17.90;99.90
26589;DHT22;14235;48.532;8.722;2023-07-30T02:29:58;17.90;99.90
26589;DHT22;14235;48.532;8.722;2023-07-30T02:32:24;17.80;99.90
26589;DHT22;14235;48.532;8.722;2023-07-30T02:34:49;17.80;99.90
26589;DHT22;14235;48.532;8.722;2023-07-30T02:37:15;17.80;99.90
26589;DHT22;14235;48.532;8.722;2023-07-30T02:39:40;17.70;99.90
26589;DHT22;14235;48.532;8.722;2023-07-30T02:42:06;17.60;99.90
26589;DHT22;14235;48.532;8.722;2023-07-30T02:44:32;17.60;99.90
26589;DHT22;14235;48.532;8.722;2023-07-30T02:46:57;17.60;99.90
26589;DHT22;14235;48.532;8.722;2023-07-30T02:49:23;17.60;99.90
26589;DHT22;14235;48.532;8.722;2023-07-30T02:51:48;17.60;99.90
26589;DHT22;14235;48.532;8.722;2023-07-30T02:54:14;17.60;99.90
26589;DHT22;14235;48.532;8.722;2023-07-30T02:56:42;17.60;99.90
26589;DHT22;14235;48.532;8.722;2023-07-30T02:59:08;17.50;99.90
26589;DHT22;14235;48.532;8.722;2023-07-30T03:01:33;17.50;99.90
26589;DHT22;14235;48.532;8.722;2023-07-30T03:03:59;17.60;99.90
26589;DHT22;14235;48.532;8.722;2023-07-30T03:06:24;17.60;99.90
26589;DHT22;14235;48.532;8.722;2023-07-30T03:08:50;17.70;99.90
26589;DHT22;14235;48.532;8.722;2023-07-30T03:11:15;17.70;99.90
26589;DHT22;14235;48.532;8.722;2023-07-30T03:13:41;17.70;99.90
26589;DHT22;14235;48.532;8.722;2023-07-30T03:16:06;17.70;99.90
26589;DHT22;14235;48.532;8.722;2023-07-30T03:18:32;17.70;99.90
26589;DHT22;14235;48.532;8.722;2023-07-30T03:20:59;17.70;99.90
26589;DHT22;14235;48.532;8.722;2023-07-30T03:23:25;17.70;99.90
26589;DHT22;14235;48.532;8.722;2023-07-30T03:25:51;17.80;99.90
26589;DHT22;14235;48.532;8.722;2023-07-30T03:28:17;17.70;99.90
26589;DHT22;14235;48.532;8.722;2023-07-30T03:30:42;17.60;99.90
26589;DHT22;14235;48.532;8.722;2023-07-30T03:33:08;17.70;99.90
26589;DHT22;14235;48.532;8.722;2023-07-30T03:35:33;17.70;99.90
26589;DHT22;14235;48.532;8.722;2023-07-30T03:37:59;17.70;99.90
26589;DHT22;14235;48.532;8.722;2023-07-30T03:40:24;17.70;99.90
26589;DHT22;14235;48.532;8.722;2023-07-30T03:42:51;17.70;99.90
26589;DHT22;14235;48.532;8.722;2023-07-30T03:45:17;17.70;99.90
26589;DHT22;14235;48.532;8.722;2023-07-30T03:47:43;17.70;99.90
26589;DHT22;14235;48.532;8.722;2023-07-30T03:50:09;17.70;99.90
26589;DHT22;14235;48.532;8.722;2023-07-30T03:52:35;17.70;99.90
26589;DHT22;14235;48.532;8.722;2023-07-30T03:55:00;17.70;99.90
26589;DHT22;14235;48.532;8.722;2023-07-30T03:57:26;17.80;99.90
26589;DHT22;14235;48.532;8.722;2023-07-30T03:59:51;17.80;99.90
26589;DHT22;14235;48.532;8.722;2023-07-30T04:02:17;17.70;99.90
26589;DHT22;14235;48.532;8.722;2023-07-30T04:04:43;17.70;99.90
26589;DHT22;14235;48.532;8.722;2023-07-30T04:07:13;17.70;99.90
26589;DHT22;14235;48.532;8.722;2023-07-30T04:09:39;17.70;99.90
26589;DHT22;14235;48.532;8.722;2023-07-30T04:12:05;17.70;99.90
26589;DHT22;14235;48.532;8.722;2023-07-30T04:14:31;17.70;99.90
26589;DHT22;14235;48.532;8.722;2023-07-30T04:16:56;17.70;99.90
26589;DHT22;14235;48.532;8.722;2023-07-30T04:19:22;17.70;99.90
26589;DHT22;14235;48.532;8.722;2023-07-30T04:21:48;17.70;99.90
26589;DHT22;14235;48.532;8.722;2023-07-30T04:24:13;17.70;99.90
26589;DHT22;14235;48.532;8.722;2023-07-30T04:26:39;17.70;99.90
26589;DHT22;14235;48.532;8.722;2023-07-30T04:29:04;17.70;99.90
26589;DHT22;14235;48.532;8.722;2023-07-30T04:31:30;17.70;99.90
26589;DHT22;14235;48.532;8.722;2023-07-30T04:33:58;17.70;99.90
26589;DHT22;14235;48.532;8.722;2023-07-30T04:36:23;17.70;99.90
26589;DHT22;14235;48.532;8.722;2023-07-30T04:42:30;17.80;99.90
26589;DHT22;14235;48.532;8.722;2023-07-30T04:44:55;17.80;99.90
26589;DHT22;14235;48.532;8.722;2023-07-30T04:47:21;17.80;99.90
26589;DHT22;14235;48.532;8.722;2023-07-30T04:49:46;18.00;99.90
26589;DHT22;14235;48.532;8.722;2023-07-30T04:52:13;18.00;99.90
26589;DHT22;14235;48.532;8.722;2023-07-30T04:54:39;18.10;99.90
26589;DHT22;14235;48.532;8.722;2023-07-30T04:57:04;17.80;99.90
26589;DHT22;14235;48.532;8.722;2023-07-30T04:59:31;17.70;99.90
26589;DHT22;14235;48.532;8.722;2023-07-30T05:01:59;17.80;99.90
26589;DHT22;14235;48.532;8.722;2023-07-30T05:04:25;17.80;99.90
26589;DHT22;14235;48.532;8.722;2023-07-30T05:06:50;17.90;99.90
26589;DHT22;14235;48.532;8.722;2023-07-30T05:09:16;18.10;99.90
26589;DHT22;14235;48.532;8.722;2023-07-30T05:11:41;18.20;99.90
26589;DHT22;14235;48.532;8.722;2023-07-30T05:14:07;18.00;99.90
26589;DHT22;14235;48.532;8.722;2023-07-30T05:16:32;18.10;99.90
26589;DHT22;14235;48.532;8.722;2023-07-30T05:18:58;18.00;99.90
26589;DHT22;14235;48.532;8.722;2023-07-30T05:21:23;17.90;99.90
26589;DHT22;14235;48.532;8.722;2023-07-30T05:23:49;18.10;99.90
26589;DHT22;14235;48.532;8.722;2023-07-30T05:26:15;18.10;99.90
26589;DHT22;14235;48.532;8.722;2023-07-30T05:28:40;18.00;99.90
26589;DHT22;14235;48.532;8.722;2023-07-30T05:31:06;18.10;99.90
26589;DHT22;14235;48.532;8.722;2023-07-30T05:33:31;18.20;99.90
26589;DHT22;14235;48.532;8.722;2023-07-30T05:35:57;18.10;99.90
26589;DHT22;14235;48.532;8.722;2023-07-30T05:38:22;18.20;99.90
26589;DHT22;14235;48.532;8.722;2023-07-30T05:40:48;18.20;99.90
26589;DHT22;14235;48.532;8.722;2023-07-30T05:43:14;18.20;99.90
26589;DHT22;14235;48.532;8.722;2023-07-30T05:45:39;17.90;99.90
26589;DHT22;14235;48.532;8.722;2023-07-30T05:48:05;18.20;99.90
26589;DHT22;14235;48.532;8.722;2023-07-30T05:50:30;18.20;99.90
26589;DHT22;14235;48.532;8.722;2023-07-30T05:52:56;18.20;99.90
26589;DHT22;14235;48.532;8.722;2023-07-30T05:55:22;18.40;99.90
26589;DHT22;14235;48.532;8.722;2023-07-30T05:57:47;18.40;99.90
26589;DHT22;14235;48.532;8.722;2023-07-30T06:00:13;18.30;99.90
26589;DHT22;14235;48.532;8.722;2023-07-30T06:02:38;18.30;99.90
26589;DHT22;14235;48.532;8.722;2023-07-30T06:05:04;18.40;99.90
26589;DHT22;14235;48.532;8.722;2023-07-30T06:07:30;18.40;99.90
26589;DHT22;14235;48.532;8.722;2023-07-30T06:09:56;18.50;99.90
26589;DHT22;14235;48.532;8.722;2023-07-30T06:12:21;18.40;99.90
26589;DHT22;14235;48.532;8.722;2023-07-30T06:14:47;18.60;99.90
26589;DHT22;14235;48.532;8.722;2023-07-30T06:17:12;18.80;99.90
26589;DHT22;14235;48.532;8.722;2023-07-30T06:19:38;18.80;99.90
26589;DHT22;14235;48.532;8.722;2023-07-30T06:22:04;18.80;99.90
26589;DHT22;14235;48.532;8.722;2023-07-30T06:24:29;18.90;99.90
26589;DHT22;14235;48.532;8.722;2023-07-30T06:26:55;19.10;99.90
26589;DHT22;14235;48.532;8.722;2023-07-30T06:29:20;19.30;99.90
26589;DHT22;14235;48.532;8.722;2023-07-30T06:31:46;19.10;99.90
26589;DHT22;14235;48.532;8.722;2023-07-30T06:34:11;19.30;99.90
26589;DHT22;14235;48.532;8.722;2023-07-30T06:36:37;19.40;99.90
26589;DHT22;14235;48.532;8.722;2023-07-30T06:39:03;19.20;99.90
26589;DHT22;14235;48.532;8.722;2023-07-30T06:41:28;19.30;99.90
26589;DHT22;14235;48.532;8.722;2023-07-30T06:43:54;19.30;99.90
26589;DHT22;14235;48.532;8.722;2023-07-30T06:46:20;19.30;99.90
26589;DHT22;14235;48.532;8.722;2023-07-30T06:48:45;19.20;99.90
26589;DHT22;14235;48.532;8.722;2023-07-30T06:51:11;19.10;99.90
26589;DHT22;14235;48.532;8.722;2023-07-30T06:53:38;19.20;99.90
26589;DHT22;14235;48.532;8.722;2023-07-30T06:56:03;19.20;99.90
26589;DHT22;14235;48.532;8.722;2023-07-30T06:58:29;19.10;99.90
26589;DHT22;14235;48.532;8.722;2023-07-30T07:00:55;19.10;99.90
26589;DHT22;14235;48.532;8.722;2023-07-30T07:03:20;19.30;99.90
26589;DHT22;14235;48.532;8.722;2023-07-30T07:05:53;19.20;99.90
26589;DHT22;14235;48.532;8.722;2023-07-30T07:08:19;19.40;99.90
26589;DHT22;14235;48.532;8.722;2023-07-30T07:10:45;19.00;99.90
26589;DHT22;14235;48.532;8.722;2023-07-30T07:13:10;19.00;99.90
26589;DHT22;14235;48.532;8.722;2023-07-30T07:15:36;19.10;99.90
26589;DHT22;14235;48.532;8.722;2023-07-30T07:18:01;19.10;99.90
26589;DHT22;14235;48.532;8.722;2023-07-30T07:20:27;19.00;99.90
26589;DHT22;14235;48.532;8.722;2023-07-30T07:22:52;19.00;99.90
26589;DHT22;14235;48.532;8.722;2023-07-30T07:25:18;19.30;99.90
26589;DHT22;14235;48.532;8.722;2023-07-30T07:27:45;19.70;99.90
26589;DHT22;14235;48.532;8.722;2023-07-30T07:30:10;19.30;99.90
26589;DHT22;14235;48.532;8.722;2023-07-30T07:32:36;19.30;99.90
26589;DHT22;14235;48.532;8.722;2023-07-30T07:35:04;19.40;99.90
26589;DHT22;14235;48.532;8.722;2023-07-30T07:37:31;19.50;99.90
26589;DHT22;14235;48.532;8.722;2023-07-30T07:39:57;19.50;99.90
26589;DHT22;14235;48.532;8.722;2023-07-30T07:42:23;19.70;99.90
26589;DHT22;14235;48.532;8.722;2023-07-30T07:44:48;19.70;99.90
26589;DHT22;14235;48.532;8.722;2023-07-30T07:47:14;19.90;99.90
26589;DHT22;14235;48.532;8.722;2023-07-30T07:49:39;20.00;99.90
26589;DHT22;14235;48.532;8.722;2023-07-30T07:52:05;20.00;99.90
26589;DHT22;14235;48.532;8.722;2023-07-30T07:54:31;20.00;99.90
26589;DHT22;14235;48.532;8.722;2023-07-30T07:56:57;20.10;99.90
26589;DHT22;14235;48.532;8.722;2023-07-30T07:59:23;20.10;99.90
26589;DHT22;14235;48.532;8.722;2023-07-30T08:01:49;20.20;99.90
26589;DHT22;14235;48.532;8.722;2023-07-30T08:04:15;20.30;99.90
26589;DHT22;14235;48.532;8.722;2023-07-30T08:06:40;20.30;99.90
26589;DHT22;14235;48.532;8.722;2023-07-30T08:09:06;20.40;99.90
26589;DHT22;14235;48.532;8.722;2023-07-30T08:11:31;20.50;99.90
26589;DHT22;14235;48.532;8.722;2023-07-30T08:13:57;20.50;99.90
26589;DHT22;14235;48.532;8.722;2023-07-30T08:16:23;20.50;99.90
26589;DHT22;14235;48.532;8.722;2023-07-30T08:18:48;20.60;99.90
26589;DHT22;14235;48.532;8.722;2023-07-30T08:21:14;20.60;99.90
26589;DHT22;14235;48.532;8.722;2023-07-30T08:23:43;20.70;99.90
26589;DHT22;14235;48.532;8.722;2023-07-30T08:26:09;20.70;99.90
26589;DHT22;14235;48.532;8.722;2023-07-30T08:28:34;20.70;99.90
26589;DHT22;14235;48.532;8.722;2023-07-30T08:31:01;20.70;99.90
26589;DHT22;14235;48.532;8.722;2023-07-30T08:33:27;20.80;99.90
26589;DHT22;14235;48.532;8.722;2023-07-30T08:35:56;20.80;99.90
26589;DHT22;14235;48.532;8.722;2023-07-30T08:38:23;20.80;99.90
26589;DHT22;14235;48.532;8.722;2023-07-30T08:40:48;20.70;99.90
26589;DHT22;14235;48.532;8.722;2023-07-30T08:43:15;20.60;99.90
26589;DHT22;14235;48.532;8.722;2023-07-30T08:45:41;20.60;99.90
26589;DHT22;14235;48.532;8.722;2023-07-30T08:48:07;20.60;99.90
26589;DHT22;14235;48.532;8.722;2023-07-30T08:50:33;20.60;99.90
26589;DHT22;14235;48.532;8.722;2023-07-30T08:52:59;20.70;99.90
26589;DHT22;14235;48.532;8.722;2023-07-30T08:55:27;19.80;99.90
26589;DHT22;14235;48.532;8.722;2023-07-30T08:57:55;20.80;99.90
26589;DHT22;14235;48.532;8.722;2023-07-30T09:00:24;20.50;99.90
26589;DHT22;14235;48.532;8.722;2023-07-30T09:02:53;20.60;99.90
26589;DHT22;14235;48.532;8.722;2023-07-30T09:05:20;20.70;99.90
26589;DHT22;14235;48.532;8.722;2023-07-30T09:07:46;20.40;99.90
26589;DHT22;14235;48.532;8.722;2023-07-30T09:10:12;20.30;99.90
26589;DHT22;14235;48.532;8.722;2023-07-30T09:12:38;20.30;99.90
26589;DHT22;14235;48.532;8.722;2023-07-30T09:15:04;20.10;99.90
26589;DHT22;14235;48.532;8.722;2023-07-30T09:17:30;20.10;99.90
26589;DHT22;14235;48.532;8.722;2023-07-30T09:19:59;20.20;99.90
26589;DHT22;14235;48.532;8.722;2023-07-30T09:22:30;20.10;99.90
26589;DHT22;14235;48.532;8.722;2023-07-30T09:24:56;20.10;99.90
26589;DHT22;14235;48.532;8.722;2023-07-30T09:27:24;20.20;99.90
26589;DHT22;14235;48.532;8.722;2023-07-30T09:29:52;20.20;99.90
26589;DHT22;14235;48.532;8.722;2023-07-30T09:32:19;20.20;99.90
26589;DHT22;14235;48.532;8.722;2023-07-30T09:34:45;20.20;99.90
26589;DHT22;14235;48.532;8.722;2023-07-30T09:37:12;20.20;99.90
26589;DHT22;14235;48.532;8.722;2023-07-30T09:39:38;20.20;99.90
26589;DHT22;14235;48.532;8.722;2023-07-30T09:42:05;20.20;99.90
26589;DHT22;14235;48.532;8.722;2023-07-30T09:44:32;20.30;99.90
26589;DHT22;14235;48.532;8.722;2023-07-30T09:47:01;20.20;99.90
26589;DHT22;14235;48.532;8.722;2023-07-30T09:49:30;20.30;99.90
26589;DHT22;14235;48.532;8.722;2023-07-30T09:51:57;20.30;99.90
26589;DHT22;14235;48.532;8.722;2023-07-30T09:54:23;20.30;99.90
26589;DHT22;14235;48.532;8.722;2023-07-30T09:56:49;20.30;99.90
26589;DHT22;14235;48.532;8.722;2023-07-30T09:59:14;20.20;99.90
26589;DHT22;14235;48.532;8.722;2023-07-30T10:01:50;20.20;99.90
26589;DHT22;14235;48.532;8.722;2023-07-30T10:04:19;20.30;99.90
26589;DHT22;14235;48.532;8.722;2023-07-30T10:06:50;20.40;99.90
26589;DHT22;14235;48.532;8.722;2023-07-30T10:09:19;20.50;99.90
26589;DHT22;14235;48.532;8.722;2023-07-30T10:11:46;20.60;99.90
26589;DHT22;14235;48.532;8.722;2023-07-30T10:14:15;20.60;99.90
26589;DHT22;14235;48.532;8.722;2023-07-30T10:16:53;20.70;99.90
26589;DHT22;14235;48.532;8.722;2023-07-30T10:19:26;20.90;99.90
26589;DHT22;14235;48.532;8.722;2023-07-30T10:22:39;20.90;99.90
26589;DHT22;14235;48.532;8.722;2023-07-30T10:24:40;20.90;99.90
26589;DHT22;14235;48.532;8.722;2023-07-30T10:27:07;20.70;99.90
26589;DHT22;14235;48.532;8.722;2023-07-30T10:29:35;20.80;99.90
26589;DHT22;14235;48.532;8.722;2023-07-30T10:32:01;20.80;99.90
26589;DHT22;14235;48.532;8.722;2023-07-30T10:34:44;20.80;99.90
26589;DHT22;14235;48.532;8.722;2023-07-30T10:37:10;20.70;99.90
26589;DHT22;14235;48.532;8.722;2023-07-30T10:39:36;20.60;99.90
26589;DHT22;14235;48.532;8.722;2023-07-30T10:42:01;20.70;99.90
26589;DHT22;14235;48.532;8.722;2023-07-30T10:44:34;20.60;99.90
26589;DHT22;14235;48.532;8.722;2023-07-30T10:47:01;20.50;99.90
26589;DHT22;14235;48.532;8.722;2023-07-30T10:49:27;20.50;99.90
26589;DHT22;14235;48.532;8.722;2023-07-30T10:51:55;20.60;99.90
26589;DHT22;14235;48.532;8.722;2023-07-30T10:54:21;20.70;99.90
26589;DHT22;14235;48.532;8.722;2023-07-30T10:56:47;20.80;99.90
26589;DHT22;14235;48.532;8.722;2023-07-30T10:59:14;20.90;99.90
26589;DHT22;14235;48.532;8.722;2023-07-30T11:01:42;21.10;99.90
26589;DHT22;14235;48.532;8.722;2023-07-30T11:04:10;21.00;99.90
26589;DHT22;14235;48.532;8.722;2023-07-30T11:06:36;21.00;99.90
26589;DHT22;14235;48.532;8.722;2023-07-30T11:09:02;21.20;99.90
26589;DHT22;14235;48.532;8.722;2023-07-30T11:11:28;21.10;99.90
26589;DHT22;14235;48.532;8.722;2023-07-30T11:13:54;21.10;99.90
26589;DHT22;14235;48.532;8.722;2023-07-30T11:16:20;21.20;99.90
26589;DHT22;14235;48.532;8.722;2023-07-30T11:18:50;21.20;99.90
26589;DHT22;14235;48.532;8.722;2023-07-30T11:21:17;21.70;99.90
26589;DHT22;14235;48.532;8.722;2023-07-30T11:23:44;21.30;99.90
26589;DHT22;14235;48.532;8.722;2023-07-30T11:26:18;21.30;99.90
26589;DHT22;14235;48.532;8.722;2023-07-30T11:28:44;21.30;99.90
26589;DHT22;14235;48.532;8.722;2023-07-30T11:31:12;21.10;99.90
26589;DHT22;14235;48.532;8.722;2023-07-30T11:33:43;21.40;99.90
26589;DHT22;14235;48.532;8.722;2023-07-30T11:36:15;21.40;99.90
26589;DHT22;14235;48.532;8.722;2023-07-30T11:38:42;21.50;99.90
26589;DHT22;14235;48.532;8.722;2023-07-30T11:41:09;21.50;99.90
26589;DHT22;14235;48.532;8.722;2023-07-30T11:43:37;21.60;99.90
26589;DHT22;14235;48.532;8.722;2023-07-30T11:46:17;21.70;99.90
26589;DHT22;14235;48.532;8.722;2023-07-30T11:48:47;21.70;99.90
26589;DHT22;14235;48.532;8.722;2023-07-30T11:51:27;21.70;99.90
26589;DHT22;14235;48.532;8.722;2023-07-30T11:56:27;21.70;99.90
26589;DHT22;14235;48.532;8.722;2023-07-30T12:01:24;21.60;99.90
26589;DHT22;14235;48.532;8.722;2023-07-30T12:03:49;21.70;99.90
26589;DHT22;14235;48.532;8.722;2023-07-30T12:06:15;21.90;99.90
26589;DHT22;14235;48.532;8.722;2023-07-30T12:08:41;22.00;99.70
26589;DHT22;14235;48.532;8.722;2023-07-30T12:11:08;22.10;98.20
26589;DHT22;14235;48.532;8.722;2023-07-30T12:13:43;22.20;97.70
26589;DHT22;14235;48.532;8.722;2023-07-30T12:16:13;22.40;98.40
26589;DHT22;14235;48.532;8.722;2023-07-30T12:18:40;22.50;98.00
26589;DHT22;14235;48.532;8.722;2023-07-30T12:21:06;22.50;96.80
26589;DHT22;14235;48.532;8.722;2023-07-30T12:23:37;22.50;96.20
26589;DHT22;14235;48.532;8.722;2023-07-30T12:26:03;22.80;96.90
26589;DHT22;14235;48.532;8.722;2023-07-30T12:28:33;22.70;97.60
26589;DHT22;14235;48.532;8.722;2023-07-30T12:31:01;22.70;97.80
26589;DHT22;14235;48.532;8.722;2023-07-30T12:33:27;22.80;99.00
26589;DHT22;14235;48.532;8.722;2023-07-30T12:35:53;22.80;98.90
26589;DHT22;14235;48.532;8.722;2023-07-30T12:38:19;22.60;99.60
26589;DHT22;14235;48.532;8.722;2023-07-30T12:40:44;22.50;99.90
26589;DHT22;14235;48.532;8.722;2023-07-30T12:43:10;22.50;99.90
26589;DHT22;14235;48.532;8.722;2023-07-30T12:45:35;22.60;99.90
26589;DHT22;14235;48.532;8.722;2023-07-30T12:48:01;22.40;99.70
26589;DHT22;14235;48.532;8.722;2023-07-30T12:50:27;22.50;99.90
26589;DHT22;14235;48.532;8.722;2023-07-30T12:52:53;22.50;99.90
26589;DHT22;14235;48.532;8.722;2023-07-30T12:55:19;22.60;99.80
26589;DHT22;14235;48.532;8.722;2023-07-30T12:57:44;22.70;99.90
26589;DHT22;14235;48.532;8.722;2023-07-30T13:00:10;22.90;99.80
26589;DHT22;14235;48.532;8.722;2023-07-30T13:02:36;23.00;99.30
26589;DHT22;14235;48.532;8.722;2023-07-30T13:05:03;23.10;99.70
26589;DHT22;14235;48.532;8.722;2023-07-30T13:07:29;23.30;99.90
26589;DHT22;14235;48.532;8.722;2023-07-30T13:10:03;23.50;99.80
26589;DHT22;14235;48.532;8.722;2023-07-30T13:12:29;23.50;98.10
26589;DHT22;14235;48.532;8.722;2023-07-30T13:14:55;23.40;98.20
26589;DHT22;14235;48.532;8.722;2023-07-30T13:17:20;23.40;98.80
26589;DHT22;14235;48.532;8.722;2023-07-30T13:19:46;23.50;98.60
26589;DHT22;14235;48.532;8.722;2023-07-30T13:22:12;23.60;98.30
26589;DHT22;14235;48.532;8.722;2023-07-30T13:24:37;23.70;97.90
26589;DHT22;14235;48.532;8.722;2023-07-30T13:27:05;23.50;97.10
26589;DHT22;14235;48.532;8.722;2023-07-30T13:29:30;23.50;97.30
26589;DHT22;14235;48.532;8.722;2023-07-30T13:31:56;23.70;97.70
26589;DHT22;14235;48.532;8.722;2023-07-30T13:34:22;23.80;97.30
26589;DHT22;14235;48.532;8.722;2023-07-30T13:36:47;23.80;97.20
26589;DHT22;14235;48.532;8.722;2023-07-30T13:39:13;23.70;97.70
26589;DHT22;14235;48.532;8.722;2023-07-30T13:41:39;23.90;98.70
26589;DHT22;14235;48.532;8.722;2023-07-30T13:44:04;24.10;97.50
26589;DHT22;14235;48.532;8.722;2023-07-30T13:46:30;24.30;99.80
26589;DHT22;14235;48.532;8.722;2023-07-30T13:48:55;24.20;99.60
26589;DHT22;14235;48.532;8.722;2023-07-30T13:51:21;24.30;99.60
26589;DHT22;14235;48.532;8.722;2023-07-30T13:53:46;24.10;98.90
26589;DHT22;14235;48.532;8.722;2023-07-30T13:56:12;24.40;99.90
26589;DHT22;14235;48.532;8.722;2023-07-30T13:58:37;23.90;99.40
26589;DHT22;14235;48.532;8.722;2023-07-30T14:01:06;24.20;99.90
26589;DHT22;14235;48.532;8.722;2023-07-30T14:03:32;24.30;99.90
26589;DHT22;14235;48.532;8.722;2023-07-30T14:05:57;24.40;98.50
26589;DHT22;14235;48.532;8.722;2023-07-30T14:08:23;24.20;97.40
26589;DHT22;14235;48.532;8.722;2023-07-30T14:10:49;24.30;98.40
26589;DHT22;14235;48.532;8.722;2023-07-30T14:13:14;24.10;98.30
26589;DHT22;14235;48.532;8.722;2023-07-30T14:15:40;24.30;99.40
26589;DHT22;14235;48.532;8.722;2023-07-30T14:18:06;24.30;96.50
26589;DHT22;14235;48.532;8.722;2023-07-30T14:20:32;24.60;93.50
26589;DHT22;14235;48.532;8.722;2023-07-30T14:22:58;24.70;92.70
26589;DHT22;14235;48.532;8.722;2023-07-30T14:25:26;24.90;90.90
26589;DHT22;14235;48.532;8.722;2023-07-30T14:27:52;25.00;89.70
26589;DHT22;14235;48.532;8.722;2023-07-30T14:30:17;25.10;88.80
26589;DHT22;14235;48.532;8.722;2023-07-30T14:32:43;25.30;91.80
26589;DHT22;14235;48.532;8.722;2023-07-30T14:35:08;25.50;93.50
26589;DHT22;14235;48.532;8.722;2023-07-30T14:37:34;25.40;93.30
26589;DHT22;14235;48.532;8.722;2023-07-30T14:39:59;25.70;90.60
26589;DHT22;14235;48.532;8.722;2023-07-30T14:42:25;25.40;87.90
26589;DHT22;14235;48.532;8.722;2023-07-30T14:44:51;25.50;87.60
26589;DHT22;14235;48.532;8.722;2023-07-30T14:47:16;25.30;87.80
26589;DHT22;14235;48.532;8.722;2023-07-30T14:49:42;25.70;83.80
26589;DHT22;14235;48.532;8.722;2023-07-30T14:57:00;27.10;86.90
26589;DHT22;14235;48.532;8.722;2023-07-30T14:59:26;27.20;84.60
26589;DHT22;14235;48.532;8.722;2023-07-30T15:01:51;26.60;79.60
26589;DHT22;14235;48.532;8.722;2023-07-30T15:04:17;26.40;77.70
26589;DHT22;14235;48.532;8.722;2023-07-30T15:06:42;27.00;74.20
26589;DHT22;14235;48.532;8.722;2023-07-30T15:09:08;28.50;69.40
26589;DHT22;14235;48.532;8.722;2023-07-30T15:11:34;30.20;67.90
26589;DHT22;14235;48.532;8.722;2023-07-30T17:03:40;31.60;69.00
26589;DHT22;14235;48.532;8.722;2023-07-30T17:06:07;25.20;57.40
26589;DHT22;14235;48.532;8.722;2023-07-30T17:08:32;25.00;58.00
26589;DHT22;14235;48.532;8.722;2023-07-30T17:11:06;24.90;58.60
26589;DHT22;14235;48.532;8.722;2023-07-30T17:13:33;24.60;58.80
26589;DHT22;14235;48.532;8.722;2023-07-30T17:16:07;24.60;59.20
26589;DHT22;14235;48.532;8.722;2023-07-30T17:18:33;24.50;59.10
26589;DHT22;14235;48.532;8.722;2023-07-30T17:21:00;24.50;59.00
26589;DHT22;14235;48.532;8.722;2023-07-30T17:23:26;24.30;58.90
26589;DHT22;14235;48.532;8.722;2023-07-30T17:25:52;24.30;59.80
26589;DHT22;14235;48.532;8.722;2023-07-30T17:28:18;24.20;59.50
26589;DHT22;14235;48.532;8.722;2023-07-30T17:30:44;24.10;61.90
26589;DHT22;14235;48.532;8.722;2023-07-30T17:33:10;24.00;62.50